sensor_id;sensor_type;location;lat;lon;timestamp;temperature;humidity
14485;DHT22;7328;50.812;4.422;2022-09-20T00:00:42;-19.60;99.90
14485;DHT22;7328;50.812;4.422;2022-09-20T00:03:09;-17.50;99.90
14485;DHT22;7328;50.812;4.422;2022-09-20T00:05:36;-18.60;99.90
14485;DHT22;7328;50.812;4.422;2022-09-20T00:08:04;-15.90;99.90
14485;DHT22;7328;50.812;4.422;2022-09-20T00:10:35;-19.50;99.90
14485;DHT22;7328;50.812;4.422;2022-09-20T00:13:03;-22.60;99.90
14485;DHT22;7328;50.812;4.422;2022-09-20T00:15:30;-19.50;99.90
14485;DHT22;7328;50.812;4.422;2022-09-20T00:17:57;-16.10;99.90
14485;DHT22;7328;50.812;4.422;2022-09-20T00:20:24;-16.00;99.90
14485;DHT22;7328;50.812;4.422;2022-09-20T00:22:50;-15.90;99.90
14485;DHT22;7328;50.812;4.422;2022-09-20T00:25:17;-16.00;99.90
14485;DHT22;7328;50.812;4.422;2022-09-20T00:27:43;-16.50;99.90
14485;DHT22;7328;50.812;4.422;2022-09-20T00:30:10;-18.90;99.90
14485;DHT22;7328;50.812;4.422;2022-09-20T00:32:36;-20.00;99.90
14485;DHT22;7328;50.812;4.422;2022-09-20T00:35:02;-21.60;99.90
14485;DHT22;7328;50.812;4.422;2022-09-20T00:37:40;-21.30;99.90
14485;DHT22;7328;50.812;4.422;2022-09-20T00:40:09;-23.50;99.90
14485;DHT22;7328;50.812;4.422;2022-09-20T00:42:36;-21.30;99.90
14485;DHT22;7328;50.812;4.422;2022-09-20T00:48:26;-17.60;99.90
14485;DHT22;7328;50.812;4.422;2022-09-20T00:51:08;-24.60;99.90
14485;DHT22;7328;50.812;4.422;2022-09-20T00:53:39;-21.80;99.90
14485;DHT22;7328;50.812;4.422;2022-09-20T00:56:10;-20.50;99.90
14485;DHT22;7328;50.812;4.422;2022-09-20T00:58:41;-21.20;99.90
14485;DHT22;7328;50.812;4.422;2022-09-20T01:01:09;-18.40;99.90
14485;DHT22;7328;50.812;4.422;2022-09-20T01:03:35;-19.90;99.90
14485;DHT22;7328;50.812;4.422;2022-09-20T01:06:05;-23.30;99.90
14485;DHT22;7328;50.812;4.422;2022-09-20T01:08:33;-23.10;99.90
14485;DHT22;7328;50.812;4.422;2022-09-20T01:11:00;-21.60;99.90
14485;DHT22;7328;50.812;4.422;2022-09-20T01:13:26;-27.10;99.90
14485;DHT22;7328;50.812;4.422;2022-09-20T01:15:52;-22.90;99.90
14485;DHT22;7328;50.812;4.422;2022-09-20T01:18:20;-20.10;99.90
14485;DHT22;7328;50.812;4.422;2022-09-20T01:20:47;-17.40;99.90
14485;DHT22;7328;50.812;4.422;2022-09-20T01:28:44;-22.40;99.90
14485;DHT22;7328;50.812;4.422;2022-09-20T01:31:24;-19.80;99.90
14485;DHT22;7328;50.812;4.422;2022-09-20T01:34:05;-18.30;99.90
14485;DHT22;7328;50.812;4.422;2022-09-20T01:36:47;-22.90;99.90
14485;DHT22;7328;50.812;4.422;2022-09-20T01:42:04;-23.50;99.90
14485;DHT22;7328;50.812;4.422;2022-09-20T01:44:54;-23.60;99.90
14485;DHT22;7328;50.812;4.422;2022-09-20T02:02:06;-18.90;99.90
14485;DHT22;7328;50.812;4.422;2022-09-20T02:07:45;-20.40;99.90
14485;DHT22;7328;50.812;4.422;2022-09-20T02:13:00;-18.40;99.90
14485;DHT22;7328;50.812;4.422;2022-09-20T02:18:44;-23.00;99.90
14485;DHT22;7328;50.812;4.422;2022-09-20T02:35:12;-22.50;99.90
14485;DHT22;7328;50.812;4.422;2022-09-20T02:43:43;-21.70;99.90
14485;DHT22;7328;50.812;4.422;2022-09-20T02:46:29;-21.30;99.90
14485;DHT22;7328;50.812;4.422;2022-09-20T02:51:53;-25.70;99.90
14485;DHT22;7328;50.812;4.422;2022-09-20T02:54:36;-23.70;99.90
14485;DHT22;7328;50.812;4.422;2022-09-20T02:57:13;-23.30;99.90
14485;DHT22;7328;50.812;4.422;2022-09-20T03:18:13;-25.50;99.90
14485;DHT22;7328;50.812;4.422;2022-09-20T03:26:29;-21.70;99.90
14485;DHT22;7328;50.812;4.422;2022-09-20T03:34:49;-26.10;99.90
14485;DHT22;7328;50.812;4.422;2022-09-20T03:37:49;-22.40;99.90
14485;DHT22;7328;50.812;4.422;2022-09-20T03:43:03;-23.30;99.90
14485;DHT22;7328;50.812;4.422;2022-09-20T03:51:12;-27.10;99.90
14485;DHT22;7328;50.812;4.422;2022-09-20T03:53:57;-23.20;99.90
14485;DHT22;7328;50.812;4.422;2022-09-20T03:59:46;-24.50;99.90
14485;DHT22;7328;50.812;4.422;2022-09-20T04:02:22;-26.20;99.90
14485;DHT22;7328;50.812;4.422;2022-09-20T04:04:51;-24.80;99.90
14485;DHT22;7328;50.812;4.422;2022-09-20T04:10:23;-26.00;99.90
14485;DHT22;7328;50.812;4.422;2022-09-20T04:13:38;-24.60;99.90
14485;DHT22;7328;50.812;4.422;2022-09-20T04:21:54;-23.60;99.90
14485;DHT22;7328;50.812;4.422;2022-09-20T04:29:37;-24.90;99.90
14485;DHT22;7328;50.812;4.422;2022-09-20T04:32:24;-23.90;99.90
14485;DHT22;7328;50.812;4.422;2022-09-20T04:37:49;-23.60;99.90
14485;DHT22;7328;50.812;4.422;2022-09-20T05:00:56;-36.60;99.90
14485;DHT22;7328;50.812;4.422;2022-09-20T05:14:47;-28.40;99.90
14485;DHT22;7328;50.812;4.422;2022-09-20T05:20:38;-28.30;99.90
14485;DHT22;7328;50.812;4.422;2022-09-20T05:32:13;-25.00;99.90
14485;DHT22;7328;50.812;4.422;2022-09-20T05:37:32;-26.50;99.90
14485;DHT22;7328;50.812;4.422;2022-09-20T05:51:15;-28.10;99.90
14485;DHT22;7328;50.812;4.422;2022-09-20T05:56:25;-25.40;99.90
14485;DHT22;7328;50.812;4.422;2022-09-20T06:02:13;-28.50;99.90
14485;DHT22;7328;50.812;4.422;2022-09-20T06:07:26;-27.70;99.90
14485;DHT22;7328;50.812;4.422;2022-09-20T06:10:19;-33.60;99.90
14485;DHT22;7328;50.812;4.422;2022-09-20T06:16:04;-29.80;99.90
14485;DHT22;7328;50.812;4.422;2022-09-20T06:18:49;-33.20;99.90
14485;DHT22;7328;50.812;4.422;2022-09-20T06:24:47;-27.70;99.90
14485;DHT22;7328;50.812;4.422;2022-09-20T06:27:29;-28.40;99.90
14485;DHT22;7328;50.812;4.422;2022-09-20T06:30:03;-26.50;99.90
14485;DHT22;7328;50.812;4.422;2022-09-20T06:32:30;-29.30;99.90
14485;DHT22;7328;50.812;4.422;2022-09-20T06:34:58;-29.40;99.90
14485;DHT22;7328;50.812;4.422;2022-09-20T06:40:47;-33.90;99.90
14485;DHT22;7328;50.812;4.422;2022-09-20T06:43:32;-35.30;99.90
14485;DHT22;7328;50.812;4.422;2022-09-20T06:46:00;-37.70;99.90
14485;DHT22;7328;50.812;4.422;2022-09-20T06:48:26;-35.00;99.90
14485;DHT22;7328;50.812;4.422;2022-09-20T06:50:54;-33.90;99.90
14485;DHT22;7328;50.812;4.422;2022-09-20T06:53:31;-32.80;99.90
14485;DHT22;7328;50.812;4.422;2022-09-20T06:55:58;-40.00;99.90
14485;DHT22;7328;50.812;4.422;2022-09-20T06:58:24;-40.00;99.90
14485;DHT22;7328;50.812;4.422;2022-09-20T07:00:51;-40.00;99.90
14485;DHT22;7328;50.812;4.422;2022-09-20T07:03:17;-40.00;99.90
14485;DHT22;7328;50.812;4.422;2022-09-20T07:05:44;-40.00;99.90
14485;DHT22;7328;50.812;4.422;2022-09-20T07:08:11;-40.00;99.90
14485;DHT22;7328;50.812;4.422;2022-09-20T07:10:37;-40.00;99.90
14485;DHT22;7328;50.812;4.422;2022-09-20T07:13:03;-40.00;99.90
14485;DHT22;7328;50.812;4.422;2022-09-20T07:15:31;-40.00;99.90
14485;DHT22;7328;50.812;4.422;2022-09-20T07:17:57;-40.00;99.90
14485;DHT22;7328;50.812;4.422;2022-09-20T07:20:25;-40.00;99.90
14485;DHT22;7328;50.812;4.422;2022-09-20T07:22:51;-40.00;99.90
14485;DHT22;7328;50.812;4.422;2022-09-20T07:25:17;-40.00;99.90
14485;DHT22;7328;50.812;4.422;2022-09-20T07:27:43;-40.00;99.90
14485;DHT22;7328;50.812;4.422;2022-09-20T07:30:12;-40.00;99.90
14485;DHT22;7328;50.812;4.422;2022-09-20T07:32:38;-40.00;99.90
14485;DHT22;7328;50.812;4.422;2022-09-20T07:35:07;-40.00;99.90
14485;DHT22;7328;50.812;4.422;2022-09-20T07:37:33;-40.00;99.90
14485;DHT22;7328;50.812;4.422;2022-09-20T07:39:59;-36.70;99.90
14485;DHT22;7328;50.812;4.422;2022-09-20T07:42:25;-38.90;99.90
14485;DHT22;7328;50.812;4.422;2022-09-20T07:44:51;-38.20;99.90
14485;DHT22;7328;50.812;4.422;2022-09-20T07:47:17;-40.00;99.90
14485;DHT22;7328;50.812;4.422;2022-09-20T07:49:43;-40.00;99.90
14485;DHT22;7328;50.812;4.422;2022-09-20T07:52:09;-40.00;99.90
14485;DHT22;7328;50.812;4.422;2022-09-20T07:54:35;-40.00;99.90
14485;DHT22;7328;50.812;4.422;2022-09-20T07:57:01;-37.50;99.90
14485;DHT22;7328;50.812;4.422;2022-09-20T07:59:27;-40.00;99.90
14485;DHT22;7328;50.812;4.422;2022-09-20T08:01:53;-32.60;99.90
14485;DHT22;7328;50.812;4.422;2022-09-20T08:04:19;-37.30;99.90
14485;DHT22;7328;50.812;4.422;2022-09-20T08:06:45;-36.20;99.90
14485;DHT22;7328;50.812;4.422;2022-09-20T08:09:12;-33.90;99.90
14485;DHT22;7328;50.812;4.422;2022-09-20T08:11:38;-36.40;99.90
14485;DHT22;7328;50.812;4.422;2022-09-20T08:14:05;-37.90;99.90
14485;DHT22;7328;50.812;4.422;2022-09-20T08:16:37;-38.20;99.90
14485;DHT22;7328;50.812;4.422;2022-09-20T08:19:03;-32.80;99.90
14485;DHT22;7328;50.812;4.422;2022-09-20T08:21:32;-27.60;99.90
14485;DHT22;7328;50.812;4.422;2022-09-20T08:23:58;-28.40;99.90
14485;DHT22;7328;50.812;4.422;2022-09-20T08:26:25;-28.50;99.90
14485;DHT22;7328;50.812;4.422;2022-09-20T08:28:53;-25.40;99.90
14485;DHT22;7328;50.812;4.422;2022-09-20T08:31:21;-36.70;99.90
14485;DHT22;7328;50.812;4.422;2022-09-20T08:33:48;-34.70;99.90
14485;DHT22;7328;50.812;4.422;2022-09-20T08:36:19;-31.30;99.90
14485;DHT22;7328;50.812;4.422;2022-09-20T08:38:45;-28.90;99.90
14485;DHT22;7328;50.812;4.422;2022-09-20T08:41:26;-32.90;99.90
14485;DHT22;7328;50.812;4.422;2022-09-20T08:46:21;-28.10;99.90
14485;DHT22;7328;50.812;4.422;2022-09-20T08:48:49;-26.80;99.90
14485;DHT22;7328;50.812;4.422;2022-09-20T08:51:16;-34.70;99.90
14485;DHT22;7328;50.812;4.422;2022-09-20T08:53:52;-28.40;99.90
14485;DHT22;7328;50.812;4.422;2022-09-20T08:56:20;-34.10;99.90
14485;DHT22;7328;50.812;4.422;2022-09-20T08:58:47;-40.00;99.90
14485;DHT22;7328;50.812;4.422;2022-09-20T09:01:21;-32.70;99.90
14485;DHT22;7328;50.812;4.422;2022-09-20T09:03:50;-36.10;99.90
14485;DHT22;7328;50.812;4.422;2022-09-20T09:06:19;-37.70;99.90
14485;DHT22;7328;50.812;4.422;2022-09-20T09:08:46;-31.30;99.90
14485;DHT22;7328;50.812;4.422;2022-09-20T09:11:16;-30.50;99.90
14485;DHT22;7328;50.812;4.422;2022-09-20T09:14:02;-27.00;99.90
14485;DHT22;7328;50.812;4.422;2022-09-20T09:16:33;-37.90;99.90
14485;DHT22;7328;50.812;4.422;2022-09-20T09:19:28;-33.40;99.90
14485;DHT22;7328;50.812;4.422;2022-09-20T09:22:02;-36.50;99.90
14485;DHT22;7328;50.812;4.422;2022-09-20T09:24:29;-33.80;99.90
14485;DHT22;7328;50.812;4.422;2022-09-20T09:27:11;-37.10;99.90
14485;DHT22;7328;50.812;4.422;2022-09-20T09:29:49;-35.50;99.90
14485;DHT22;7328;50.812;4.422;2022-09-20T09:32:27;-29.20;99.90
14485;DHT22;7328;50.812;4.422;2022-09-20T09:34:55;-38.80;99.90
14485;DHT22;7328;50.812;4.422;2022-09-20T09:37:26;-32.80;99.90
14485;DHT22;7328;50.812;4.422;2022-09-20T09:40:14;-25.60;99.90
14485;DHT22;7328;50.812;4.422;2022-09-20T09:42:54;-27.60;99.90
14485;DHT22;7328;50.812;4.422;2022-09-20T09:45:28;-37.10;99.90
14485;DHT22;7328;50.812;4.422;2022-09-20T09:47:56;-35.10;99.90
14485;DHT22;7328;50.812;4.422;2022-09-20T09:50:32;-37.40;99.90
14485;DHT22;7328;50.812;4.422;2022-09-20T09:53:01;-31.00;99.90
14485;DHT22;7328;50.812;4.422;2022-09-20T09:58:33;-40.00;99.90
14485;DHT22;7328;50.812;4.422;2022-09-20T10:01:07;-29.50;99.90
14485;DHT22;7328;50.812;4.422;2022-09-20T10:03:48;-29.90;99.90
14485;DHT22;7328;50.812;4.422;2022-09-20T10:07:26;-40.00;99.90
14485;DHT22;7328;50.812;4.422;2022-09-20T10:13:15;-38.40;98.70
14485;DHT22;7328;50.812;4.422;2022-09-20T10:26:51;-31.30;99.90
14485;DHT22;7328;50.812;4.422;2022-09-20T10:36:56;-25.20;99.90
14485;DHT22;7328;50.812;4.422;2022-09-20T10:39:36;-22.60;99.90
14485;DHT22;7328;50.812;4.422;2022-09-20T10:45:17;-22.50;99.90
14485;DHT22;7328;50.812;4.422;2022-09-20T10:48:05;-19.70;99.90
14485;DHT22;7328;50.812;4.422;2022-09-20T10:51:03;-22.30;99.90
14485;DHT22;7328;50.812;4.422;2022-09-20T10:53:42;-28.20;99.90
14485;DHT22;7328;50.812;4.422;2022-09-20T10:56:32;-22.10;99.90
14485;DHT22;7328;50.812;4.422;2022-09-20T11:13:22;-28.00;99.90
14485;DHT22;7328;50.812;4.422;2022-09-20T11:15:55;-25.20;99.90
14485;DHT22;7328;50.812;4.422;2022-09-20T11:18:36;-19.00;99.90
14485;DHT22;7328;50.812;4.422;2022-09-20T11:25:01;-21.00;99.90
14485;DHT22;7328;50.812;4.422;2022-09-20T11:27:01;15.00;99.90
14485;DHT22;7328;50.812;4.422;2022-09-20T11:29:39;15.40;99.90
14485;DHT22;7328;50.812;4.422;2022-09-20T11:35:37;15.30;99.90
14485;DHT22;7328;50.812;4.422;2022-09-20T11:38:20;15.20;99.90
14485;DHT22;7328;50.812;4.422;2022-09-20T11:41:13;15.30;99.90
14485;DHT22;7328;50.812;4.422;2022-09-20T11:43:41;15.50;99.90
14485;DHT22;7328;50.812;4.422;2022-09-20T11:46:14;15.60;99.90
14485;DHT22;7328;50.812;4.422;2022-09-20T11:49:05;15.70;99.90
14485;DHT22;7328;50.812;4.422;2022-09-20T11:57:00;15.30;99.90
14485;DHT22;7328;50.812;4.422;2022-09-20T11:59:51;-32.30;99.90
14485;DHT22;7328;50.812;4.422;2022-09-20T12:04:59;-30.40;99.90
14485;DHT22;7328;50.812;4.422;2022-09-20T12:10:01;-31.90;97.40
14485;DHT22;7328;50.812;4.422;2022-09-20T12:12:43;-35.70;94.80
14485;DHT22;7328;50.812;4.422;2022-09-20T12:28:42;17.50;99.90
14485;DHT22;7328;50.812;4.422;2022-09-20T12:39:17;17.30;99.90
14485;DHT22;7328;50.812;4.422;2022-09-20T12:42:26;17.50;99.90
14485;DHT22;7328;50.812;4.422;2022-09-20T12:47:25;18.00;99.90
14485;DHT22;7328;50.812;4.422;2022-09-20T12:49:54;18.10;99.90
14485;DHT22;7328;50.812;4.422;2022-09-20T12:58:04;17.80;99.90
14485;DHT22;7328;50.812;4.422;2022-09-20T13:09:04;16.00;99.90
14485;DHT22;7328;50.812;4.422;2022-09-20T13:14:31;16.30;99.90
14485;DHT22;7328;50.812;4.422;2022-09-20T13:17:04;16.40;99.90
14485;DHT22;7328;50.812;4.422;2022-09-20T13:19:57;16.40;99.90
14485;DHT22;7328;50.812;4.422;2022-09-20T13:22:36;16.40;99.90
14485;DHT22;7328;50.812;4.422;2022-09-20T13:25:12;16.30;99.90
14485;DHT22;7328;50.812;4.422;2022-09-20T13:28:09;16.20;99.90
14485;DHT22;7328;50.812;4.422;2022-09-20T13:30:38;16.10;99.90
14485;DHT22;7328;50.812;4.422;2022-09-20T13:33:21;16.10;99.90
14485;DHT22;7328;50.812;4.422;2022-09-20T13:35:49;16.10;99.90
14485;DHT22;7328;50.812;4.422;2022-09-20T13:38:17;15.90;99.90
14485;DHT22;7328;50.812;4.422;2022-09-20T13:40:50;15.90;99.90
14485;DHT22;7328;50.812;4.422;2022-09-20T13:43:25;15.90;99.90
14485;DHT22;7328;50.812;4.422;2022-09-20T13:45:59;16.00;99.90
14485;DHT22;7328;50.812;4.422;2022-09-20T13:48:26;16.00;99.90
14485;DHT22;7328;50.812;4.422;2022-09-20T13:50:53;16.00;99.90
14485;DHT22;7328;50.812;4.422;2022-09-20T13:53:21;15.90;99.90
14485;DHT22;7328;50.812;4.422;2022-09-20T13:55:47;15.90;99.90
14485;DHT22;7328;50.812;4.422;2022-09-20T13:58:31;15.70;99.90
14485;DHT22;7328;50.812;4.422;2022-09-20T14:01:04;15.60;99.90
14485;DHT22;7328;50.812;4.422;2022-09-20T14:03:32;15.80;99.90
14485;DHT22;7328;50.812;4.422;2022-09-20T14:06:00;15.90;99.90
14485;DHT22;7328;50.812;4.422;2022-09-20T14:11:15;14.80;99.90
14485;DHT22;7328;50.812;4.422;2022-09-20T14:13:43;18.30;99.90
14485;DHT22;7328;50.812;4.422;2022-09-20T14:16:10;18.60;99.90
14485;DHT22;7328;50.812;4.422;2022-09-20T14:18:38;18.80;99.90
14485;DHT22;7328;50.812;4.422;2022-09-20T14:21:08;18.80;99.90
14485;DHT22;7328;50.812;4.422;2022-09-20T14:23:55;18.70;99.90
14485;DHT22;7328;50.812;4.422;2022-09-20T14:26:37;18.80;99.90
14485;DHT22;7328;50.812;4.422;2022-09-20T14:29:26;18.60;99.90
14485;DHT22;7328;50.812;4.422;2022-09-20T14:31:54;19.20;99.90
14485;DHT22;7328;50.812;4.422;2022-09-20T14:34:20;19.00;99.90
14485;DHT22;7328;50.812;4.422;2022-09-20T14:36:47;18.50;99.90
14485;DHT22;7328;50.812;4.422;2022-09-20T14:39:17;18.40;99.90
14485;DHT22;7328;50.812;4.422;2022-09-20T14:41:45;18.20;99.90
14485;DHT22;7328;50.812;4.422;2022-09-20T14:44:25;18.00;99.90
14485;DHT22;7328;50.812;4.422;2022-09-20T14:46:55;17.70;99.90
14485;DHT22;7328;50.812;4.422;2022-09-20T14:51:53;17.50;99.90
14485;DHT22;7328;50.812;4.422;2022-09-20T14:54:28;17.50;99.90
14485;DHT22;7328;50.812;4.422;2022-09-20T14:56:56;17.50;99.90
14485;DHT22;7328;50.812;4.422;2022-09-20T14:59:27;17.50;99.90
14485;DHT22;7328;50.812;4.422;2022-09-20T15:02:15;17.40;99.90
14485;DHT22;7328;50.812;4.422;2022-09-20T15:04:53;16.10;99.90
14485;DHT22;7328;50.812;4.422;2022-09-20T15:07:19;16.40;99.90
14485;DHT22;7328;50.812;4.422;2022-09-20T15:09:45;16.30;99.90
14485;DHT22;7328;50.812;4.422;2022-09-20T15:12:16;16.90;99.90
14485;DHT22;7328;50.812;4.422;2022-09-20T15:14:42;17.10;99.90
14485;DHT22;7328;50.812;4.422;2022-09-20T15:17:18;17.30;99.90
14485;DHT22;7328;50.812;4.422;2022-09-20T15:19:46;17.50;99.90
14485;DHT22;7328;50.812;4.422;2022-09-20T15:22:12;17.50;99.90
14485;DHT22;7328;50.812;4.422;2022-09-20T15:24:39;17.40;99.90
14485;DHT22;7328;50.812;4.422;2022-09-20T15:27:06;17.40;99.90
14485;DHT22;7328;50.812;4.422;2022-09-20T15:29:32;17.30;99.90
14485;DHT22;7328;50.812;4.422;2022-09-20T15:31:58;17.30;99.90
14485;DHT22;7328;50.812;4.422;2022-09-20T15:34:24;17.20;99.90
14485;DHT22;7328;50.812;4.422;2022-09-20T15:36:50;17.20;99.90
14485;DHT22;7328;50.812;4.422;2022-09-20T15:39:16;17.10;99.90
14485;DHT22;7328;50.812;4.422;2022-09-20T15:41:42;17.00;99.90
14485;DHT22;7328;50.812;4.422;2022-09-20T15:44:09;17.00;99.90
14485;DHT22;7328;50.812;4.422;2022-09-20T15:46:35;16.90;99.90
14485;DHT22;7328;50.812;4.422;2022-09-20T15:49:02;16.80;99.90
14485;DHT22;7328;50.812;4.422;2022-09-20T15:51:31;16.90;99.90
14485;DHT22;7328;50.812;4.422;2022-09-20T15:54:02;16.90;99.90
14485;DHT22;7328;50.812;4.422;2022-09-20T15:56:36;16.80;99.90
14485;DHT22;7328;50.812;4.422;2022-09-20T15:59:06;16.80;99.90
14485;DHT22;7328;50.812;4.422;2022-09-20T16:01:35;16.80;99.90
14485;DHT22;7328;50.812;4.422;2022-09-20T16:04:06;16.90;99.90
14485;DHT22;7328;50.812;4.422;2022-09-20T16:06:33;16.70;99.90
14485;DHT22;7328;50.812;4.422;2022-09-20T16:08:59;16.50;99.90
14485;DHT22;7328;50.812;4.422;2022-09-20T16:11:24;16.50;99.90
14485;DHT22;7328;50.812;4.422;2022-09-20T16:13:56;16.40;99.90
14485;DHT22;7328;50.812;4.422;2022-09-20T16:16:24;16.20;99.90
14485;DHT22;7328;50.812;4.422;2022-09-20T16:18:50;13.70;99.90
14485;DHT22;7328;50.812;4.422;2022-09-20T16:21:36;16.70;99.90
14485;DHT22;7328;50.812;4.422;2022-09-20T16:24:02;16.70;99.90
14485;DHT22;7328;50.812;4.422;2022-09-20T16:26:28;16.70;99.90
14485;DHT22;7328;50.812;4.422;2022-09-20T16:28:55;16.60;99.90
14485;DHT22;7328;50.812;4.422;2022-09-20T16:34:05;16.50;99.90
14485;DHT22;7328;50.812;4.422;2022-09-20T16:36:32;16.70;99.90
14485;DHT22;7328;50.812;4.422;2022-09-20T16:38:58;16.60;99.90
14485;DHT22;7328;50.812;4.422;2022-09-20T16:41:25;16.40;99.90
14485;DHT22;7328;50.812;4.422;2022-09-20T16:43:52;16.30;99.90
14485;DHT22;7328;50.812;4.422;2022-09-20T16:46:19;16.30;99.90
14485;DHT22;7328;50.812;4.422;2022-09-20T16:48:48;16.10;99.90
14485;DHT22;7328;50.812;4.422;2022-09-20T16:51:21;16.10;99.90
14485;DHT22;7328;50.812;4.422;2022-09-20T16:53:53;16.10;99.90
14485;DHT22;7328;50.812;4.422;2022-09-20T16:56:24;15.90;99.90
14485;DHT22;7328;50.812;4.422;2022-09-20T16:58:50;15.80;99.90
14485;DHT22;7328;50.812;4.422;2022-09-20T17:01:17;15.70;99.90
14485;DHT22;7328;50.812;4.422;2022-09-20T17:03:43;15.70;99.90
14485;DHT22;7328;50.812;4.422;2022-09-20T17:06:10;15.50;99.90
14485;DHT22;7328;50.812;4.422;2022-09-20T17:08:37;15.50;99.90
14485;DHT22;7328;50.812;4.422;2022-09-20T17:11:15;15.10;99.90
14485;DHT22;7328;50.812;4.422;2022-09-20T17:13:43;15.50;99.90
14485;DHT22;7328;50.812;4.422;2022-09-20T17:16:13;15.50;99.90
14485;DHT22;7328;50.812;4.422;2022-09-20T17:18:39;15.50;99.90
14485;DHT22;7328;50.812;4.422;2022-09-20T17:21:16;15.40;99.90
14485;DHT22;7328;50.812;4.422;2022-09-20T17:23:43;15.30;99.90
14485;DHT22;7328;50.812;4.422;2022-09-20T17:26:18;15.00;99.90
14485;DHT22;7328;50.812;4.422;2022-09-20T17:28:46;14.50;99.90
14485;DHT22;7328;50.812;4.422;2022-09-20T17:31:15;14.00;99.90
14485;DHT22;7328;50.812;4.422;2022-09-20T17:33:42;13.70;99.90
14485;DHT22;7328;50.812;4.422;2022-09-20T17:36:12;14.50;99.90
14485;DHT22;7328;50.812;4.422;2022-09-20T17:38:40;14.50;99.90
14485;DHT22;7328;50.812;4.422;2022-09-20T17:41:09;14.30;99.90
14485;DHT22;7328;50.812;4.422;2022-09-20T17:43:36;14.00;99.90
14485;DHT22;7328;50.812;4.422;2022-09-20T17:48:37;14.40;99.90
14485;DHT22;7328;50.812;4.422;2022-09-20T17:51:03;14.30;99.90
14485;DHT22;7328;50.812;4.422;2022-09-20T17:53:31;14.10;99.90
14485;DHT22;7328;50.812;4.422;2022-09-20T17:55:58;13.80;99.90
14485;DHT22;7328;50.812;4.422;2022-09-20T17:58:25;13.70;99.90
14485;DHT22;7328;50.812;4.422;2022-09-20T18:00:51;13.60;99.90
14485;DHT22;7328;50.812;4.422;2022-09-20T18:03:21;13.20;99.90
14485;DHT22;7328;50.812;4.422;2022-09-20T18:05:48;12.80;99.90
14485;DHT22;7328;50.812;4.422;2022-09-20T18:08:15;11.80;99.90
14485;DHT22;7328;50.812;4.422;2022-09-20T18:10:55;-15.00;99.90
14485;DHT22;7328;50.812;4.422;2022-09-20T18:13:22;-15.10;99.90
14485;DHT22;7328;50.812;4.422;2022-09-20T18:15:48;-18.60;99.90
14485;DHT22;7328;50.812;4.422;2022-09-20T18:18:14;-20.20;99.90
14485;DHT22;7328;50.812;4.422;2022-09-20T18:20:39;-20.70;99.90
14485;DHT22;7328;50.812;4.422;2022-09-20T18:23:05;-17.20;99.90
14485;DHT22;7328;50.812;4.422;2022-09-20T18:25:33;-19.80;99.90
14485;DHT22;7328;50.812;4.422;2022-09-20T18:28:19;-21.40;99.90
14485;DHT22;7328;50.812;4.422;2022-09-20T18:30:44;-20.00;99.90
14485;DHT22;7328;50.812;4.422;2022-09-20T18:33:11;-18.20;99.90
14485;DHT22;7328;50.812;4.422;2022-09-20T18:35:37;-18.30;99.90
14485;DHT22;7328;50.812;4.422;2022-09-20T18:38:07;-17.60;99.90
14485;DHT22;7328;50.812;4.422;2022-09-20T18:40:33;-18.00;99.90
14485;DHT22;7328;50.812;4.422;2022-09-20T18:43:01;-18.20;99.90
14485;DHT22;7328;50.812;4.422;2022-09-20T18:45:27;-18.40;99.90
14485;DHT22;7328;50.812;4.422;2022-09-20T18:47:53;-18.00;99.90
14485;DHT22;7328;50.812;4.422;2022-09-20T18:50:22;-14.10;99.90
14485;DHT22;7328;50.812;4.422;2022-09-20T18:52:54;-15.30;99.90
14485;DHT22;7328;50.812;4.422;2022-09-20T18:55:20;-14.40;99.90
14485;DHT22;7328;50.812;4.422;2022-09-20T18:57:49;-18.20;99.90
14485;DHT22;7328;50.812;4.422;2022-09-20T19:00:15;-16.80;99.90
14485;DHT22;7328;50.812;4.422;2022-09-20T19:02:57;-17.40;99.90
14485;DHT22;7328;50.812;4.422;2022-09-20T19:05:44;-16.70;99.90
14485;DHT22;7328;50.812;4.422;2022-09-20T19:08:41;-14.30;99.90
14485;DHT22;7328;50.812;4.422;2022-09-20T19:11:11;-11.90;99.90
14485;DHT22;7328;50.812;4.422;2022-09-20T19:13:47;-14.30;99.90
14485;DHT22;7328;50.812;4.422;2022-09-20T19:16:23;-18.30;99.90
14485;DHT22;7328;50.812;4.422;2022-09-20T19:19:01;-17.20;99.90
14485;DHT22;7328;50.812;4.422;2022-09-20T19:26:32;-13.50;99.90
14485;DHT22;7328;50.812;4.422;2022-09-20T19:29:03;-14.10;99.90
14485;DHT22;7328;50.812;4.422;2022-09-20T19:31:35;-18.80;99.90
14485;DHT22;7328;50.812;4.422;2022-09-20T19:34:05;-15.00;99.90
14485;DHT22;7328;50.812;4.422;2022-09-20T19:45:35;-19.10;99.90
14485;DHT22;7328;50.812;4.422;2022-09-20T19:48:20;-19.20;99.90
14485;DHT22;7328;50.812;4.422;2022-09-20T19:50:52;-17.60;99.90
14485;DHT22;7328;50.812;4.422;2022-09-20T19:53:20;-17.90;99.90
14485;DHT22;7328;50.812;4.422;2022-09-20T19:55:51;-17.70;99.90
14485;DHT22;7328;50.812;4.422;2022-09-20T19:58:18;-15.50;99.90
14485;DHT22;7328;50.812;4.422;2022-09-20T20:00:45;-15.60;99.90
14485;DHT22;7328;50.812;4.422;2022-09-20T20:03:12;-15.20;99.90
14485;DHT22;7328;50.812;4.422;2022-09-20T20:05:45;-18.20;99.90
14485;DHT22;7328;50.812;4.422;2022-09-20T20:08:22;-19.00;99.90
14485;DHT22;7328;50.812;4.422;2022-09-20T20:11:08;-23.00;99.90
14485;DHT22;7328;50.812;4.422;2022-09-20T20:13:55;-18.30;99.90
14485;DHT22;7328;50.812;4.422;2022-09-20T20:17:05;-19.30;99.90
14485;DHT22;7328;50.812;4.422;2022-09-20T20:28:11;-17.60;99.90
14485;DHT22;7328;50.812;4.422;2022-09-20T20:30:37;-19.20;99.90
14485;DHT22;7328;50.812;4.422;2022-09-20T20:33:03;-15.80;99.90
14485;DHT22;7328;50.812;4.422;2022-09-20T20:35:31;-15.60;99.90
14485;DHT22;7328;50.812;4.422;2022-09-20T20:37:57;-17.20;99.90
14485;DHT22;7328;50.812;4.422;2022-09-20T20:40:23;-16.60;99.90
14485;DHT22;7328;50.812;4.422;2022-09-20T20:42:54;-18.30;99.90
14485;DHT22;7328;50.812;4.422;2022-09-20T20:45:21;-18.60;99.90
14485;DHT22;7328;50.812;4.422;2022-09-20T20:47:47;-19.60;99.90
14485;DHT22;7328;50.812;4.422;2022-09-20T20:50:13;-18.60;99.90
14485;DHT22;7328;50.812;4.422;2022-09-20T20:52:39;-18.30;99.90
14485;DHT22;7328;50.812;4.422;2022-09-20T20:55:05;-16.30;99.90
14485;DHT22;7328;50.812;4.422;2022-09-20T20:57:31;-16.40;99.90
14485;DHT22;7328;50.812;4.422;2022-09-20T20:59:58;-17.10;99.90
14485;DHT22;7328;50.812;4.422;2022-09-20T21:02:25;-16.40;99.90
14485;DHT22;7328;50.812;4.422;2022-09-20T21:04:50;-19.20;99.90
14485;DHT22;7328;50.812;4.422;2022-09-20T21:07:16;-18.90;99.90
14485;DHT22;7328;50.812;4.422;2022-09-20T21:09:42;-22.20;99.90
14485;DHT22;7328;50.812;4.422;2022-09-20T21:12:08;-19.60;99.90
14485;DHT22;7328;50.812;4.422;2022-09-20T21:14:33;-22.20;99.90
14485;DHT22;7328;50.812;4.422;2022-09-20T21:16:59;-21.50;99.90
14485;DHT22;7328;50.812;4.422;2022-09-20T21:19:26;-20.10;99.90
14485;DHT22;7328;50.812;4.422;2022-09-20T21:21:52;-20.50;99.90
14485;DHT22;7328;50.812;4.422;2022-09-20T21:24:18;-24.10;99.90
14485;DHT22;7328;50.812;4.422;2022-09-20T21:26:44;-23.90;99.90
14485;DHT22;7328;50.812;4.422;2022-09-20T21:29:14;-23.20;99.90
14485;DHT22;7328;50.812;4.422;2022-09-20T21:31:42;-24.60;99.90